createdAt,value
2022-12-03T00:00:47.229Z,65.03
2022-12-03T00:01:46.677Z,66.94
2022-12-03T00:02:46.738Z,57.44
2022-12-03T00:03:46.862Z,61.52
2022-12-03T00:04:46.648Z,69.57
2022-12-03T00:05:49.073Z,62.13
2022-12-03T00:06:48.325Z,62.64
2022-12-03T00:07:46.730Z,67.31
2022-12-03T00:08:46.637Z,63.84
2022-12-03T00:09:46.586Z,66.02
2022-12-03T00:10:47.313Z,68.17
2022-12-03T00:11:46.602Z,65.95
2022-12-03T00:12:47.249Z,65.55
2022-12-03T00:13:46.658Z,62.22
2022-12-03T00:14:46.542Z,66.66
2022-12-03T00:15:46.589Z,69.89
2022-12-03T00:16:46.513Z,72.79
2022-12-03T00:17:46.475Z,66.18
2022-12-03T00:18:47.312Z,67.50
2022-12-03T00:19:46.515Z,58.55
2022-12-03T00:20:46.454Z,66.00
2022-12-03T00:21:47.307Z,65.37
2022-12-03T00:22:46.466Z,64.25
2022-12-03T00:23:46.512Z,62.42
2022-12-03T00:24:46.440Z,64.91
2022-12-03T00:25:46.419Z,63.73
2022-12-03T00:26:47.326Z,57.97
2022-12-03T00:27:46.391Z,63.29
2022-12-03T00:28:46.375Z,69.36
2022-12-03T00:29:47.279Z,61.55
2022-12-03T00:30:47.455Z,69.76
2022-12-03T00:31:46.335Z,66.74
2022-12-03T00:32:46.348Z,62.78
2022-12-03T00:33:46.345Z,60.28
2022-12-03T00:34:46.331Z,64.38
2022-12-03T00:35:46.495Z,63.84
2022-12-03T00:36:47.282Z,63.84
2022-12-03T00:37:46.287Z,69.22
2022-12-03T00:38:46.795Z,67.29
2022-12-03T00:39:46.252Z,60.71
2022-12-03T00:40:46.253Z,65.63
2022-12-03T00:41:46.223Z,65.89
2022-12-03T00:42:46.216Z,64.28
2022-12-03T00:43:46.222Z,61.81
2022-12-03T00:44:46.208Z,60.08
2022-12-03T00:45:46.188Z,62.94
2022-12-03T00:46:46.270Z,64.68
2022-12-03T00:47:46.269Z,64.50
2022-12-03T00:48:46.149Z,67.33
2022-12-03T00:49:46.165Z,48.49
2022-12-03T00:50:47.706Z,65.57
2022-12-03T00:51:46.141Z,59.71
2022-12-03T00:52:46.121Z,55.43
2022-12-03T00:53:46.116Z,58.22
2022-12-03T00:54:46.097Z,58.86
2022-12-03T00:55:46.085Z,49.55
2022-12-03T00:56:46.787Z,57.07
2022-12-03T00:57:46.066Z,62.45
2022-12-03T00:58:46.045Z,66.53
2022-12-03T00:59:46.023Z,62.25
2022-12-03T01:00:46.036Z,61.25
2022-12-03T01:01:46.304Z,66.25
2022-12-03T01:02:46.770Z,60.01
2022-12-03T01:03:46.015Z,58.46
2022-12-03T01:04:46.028Z,57.06
2022-12-03T01:05:46.034Z,54.37
2022-12-03T01:06:45.950Z,62.32
2022-12-03T01:07:46.022Z,51.23
2022-12-03T01:08:46.065Z,60.22
2022-12-03T01:09:45.929Z,53.19
2022-12-03T01:10:45.929Z,62.43
2022-12-03T01:11:45.926Z,58.54
2022-12-03T01:12:45.922Z,61.50
2022-12-03T01:13:45.883Z,59.70
2022-12-03T01:14:45.874Z,65.91
2022-12-03T01:15:45.961Z,56.18
2022-12-03T01:16:45.846Z,64.80
2022-12-03T01:17:45.854Z,55.58
2022-12-03T01:18:45.842Z,61.29
2022-12-03T01:19:48.459Z,64.77
2022-12-03T01:20:46.959Z,64.08
2022-12-03T01:21:45.833Z,58.49
2022-12-03T01:22:45.800Z,62.21
2022-12-03T01:23:45.785Z,55.65
2022-12-03T01:24:45.768Z,62.13
2022-12-03T01:25:45.890Z,66.43
2022-12-03T01:26:45.745Z,52.04
2022-12-03T01:27:45.750Z,49.44
2022-12-03T01:28:46.675Z,56.53
2022-12-03T01:29:45.888Z,60.72
2022-12-03T01:30:45.770Z,69.78
2022-12-03T01:31:46.264Z,68.97
2022-12-03T01:32:45.754Z,57.24
2022-12-03T01:33:45.676Z,59.68
2022-12-03T01:34:46.139Z,62.84
2022-12-03T01:35:45.664Z,52.22
2022-12-03T01:36:45.694Z,61.76
2022-12-03T01:37:45.623Z,61.01
2022-12-03T01:38:45.684Z,65.64
2022-12-03T01:39:45.610Z,60.82
2022-12-03T01:40:46.160Z,54.50
2022-12-03T01:41:46.175Z,52.46
2022-12-03T01:42:46.195Z,64.98
2022-12-03T01:43:45.572Z,55.02
2022-12-03T01:44:45.619Z,57.70
2022-12-03T01:45:45.539Z,62.63
2022-12-03T01:46:46.243Z,56.30
2022-12-03T01:47:45.536Z,60.28
2022-12-03T01:48:45.696Z,59.97
2022-12-03T01:49:45.485Z,64.10
2022-12-03T01:50:45.535Z,52.09
2022-12-03T01:51:45.480Z,63.50
2022-12-03T01:52:45.556Z,63.71
2022-12-03T01:53:45.461Z,54.35
2022-12-03T01:54:46.315Z,63.41
2022-12-03T01:55:48.620Z,68.17
2022-12-03T01:56:46.756Z,59.01
2022-12-03T01:57:45.408Z,59.72
2022-12-03T01:58:45.646Z,61.21
2022-12-03T01:59:45.388Z,57.11
2022-12-03T02:00:45.590Z,62.40
2022-12-03T02:01:45.442Z,58.54
2022-12-03T02:02:45.789Z,60.28
2022-12-03T02:03:46.392Z,54.28
2022-12-03T02:04:45.600Z,64.45
2022-12-03T02:05:46.166Z,56.08
2022-12-03T02:06:45.537Z,51.57
2022-12-03T02:07:45.397Z,46.47
2022-12-03T02:08:46.192Z,58.84
2022-12-03T02:09:45.317Z,64.59
2022-12-03T02:10:45.376Z,63.30
2022-12-03T02:11:45.296Z,63.63
2022-12-03T02:12:45.657Z,68.92
2022-12-03T02:13:45.283Z,61.18
2022-12-03T02:14:45.781Z,58.24
2022-12-03T02:15:45.296Z,61.98
2022-12-03T02:16:46.168Z,55.43
2022-12-03T02:17:45.229Z,63.12
2022-12-03T02:18:46.167Z,56.01
2022-12-03T02:19:45.182Z,53.72
2022-12-03T02:20:45.171Z,48.53
2022-12-03T02:21:45.145Z,59.36
2022-12-03T02:22:45.752Z,54.89
2022-12-03T02:23:45.177Z,57.23
2022-12-03T02:24:45.129Z,64.46
2022-12-03T02:25:46.657Z,56.42
2022-12-03T02:26:46.250Z,64.50
2022-12-03T02:27:45.084Z,60.04
2022-12-03T02:28:45.075Z,58.94
2022-12-03T02:29:45.082Z,51.03
2022-12-03T02:30:45.659Z,60.13
2022-12-03T02:31:45.081Z,64.95
2022-12-03T02:32:45.082Z,61.70
2022-12-03T02:33:45.110Z,53.93
2022-12-03T02:34:45.061Z,62.89
2022-12-03T02:35:45.082Z,59.06
2022-12-03T02:36:45.150Z,59.81
2022-12-03T02:37:45.714Z,58.81
2022-12-03T02:38:44.973Z,63.77
2022-12-03T02:39:45.653Z,60.69
2022-12-03T02:40:45.054Z,68.63
2022-12-03T02:41:45.042Z,48.38
2022-12-03T02:42:44.955Z,56.45
2022-12-03T02:43:45.922Z,65.19
2022-12-03T02:44:44.915Z,62.95
2022-12-03T02:45:45.042Z,52.00
2022-12-03T02:46:44.957Z,57.99
2022-12-03T02:47:45.068Z,66.84
2022-12-03T02:48:44.855Z,65.40
2022-12-03T02:49:44.898Z,58.99
2022-12-03T02:50:44.839Z,58.59
2022-12-03T02:51:45.746Z,63.35
2022-12-03T02:52:44.899Z,51.29
2022-12-03T02:53:44.847Z,53.01
2022-12-03T02:54:44.811Z,64.59
2022-12-03T02:55:44.947Z,60.18
2022-12-03T02:56:46.252Z,68.58
2022-12-03T02:57:45.856Z,65.23
2022-12-03T02:58:44.907Z,59.76
2022-12-03T02:59:44.734Z,54.79
2022-12-03T03:00:44.813Z,55.63
2022-12-03T03:01:44.855Z,49.12
2022-12-03T03:02:44.806Z,57.41
2022-12-03T03:03:44.744Z,55.78
2022-12-03T03:04:44.847Z,62.65
2022-12-03T03:05:45.687Z,57.85
2022-12-03T03:06:44.663Z,59.45
2022-12-03T03:07:45.718Z,60.92
2022-12-03T03:08:44.669Z,57.38
2022-12-03T03:09:46.120Z,52.19
2022-12-03T03:10:44.762Z,61.19
2022-12-03T03:11:44.635Z,50.54
2022-12-03T03:12:45.172Z,69.00
2022-12-03T03:13:45.144Z,58.96
2022-12-03T03:14:44.607Z,63.30
2022-12-03T03:15:44.612Z,63.13
2022-12-03T03:16:44.773Z,58.45
2022-12-03T03:17:44.687Z,66.75
2022-12-03T03:18:44.521Z,57.67
2022-12-03T03:19:45.311Z,63.60
2022-12-03T03:20:45.154Z,45.72
2022-12-03T03:21:45.136Z,62.95
2022-12-03T03:22:44.488Z,59.40
2022-12-03T03:23:44.527Z,66.68
2022-12-03T03:24:44.600Z,68.62
2022-12-03T03:25:44.476Z,56.84
2022-12-03T03:26:45.469Z,54.25
2022-12-03T03:27:45.468Z,61.48
2022-12-03T03:28:44.545Z,65.50
2022-12-03T03:29:45.144Z,51.66
2022-12-03T03:30:45.141Z,60.66
2022-12-03T03:31:45.440Z,60.62
2022-12-03T03:32:44.468Z,60.63
2022-12-03T03:33:44.417Z,56.58
2022-12-03T03:34:44.395Z,66.11
2022-12-03T03:35:44.425Z,57.06
2022-12-03T03:36:44.493Z,59.34
2022-12-03T03:37:45.141Z,62.59
2022-12-03T03:38:44.352Z,60.43
2022-12-03T03:39:44.375Z,64.54
2022-12-03T03:40:44.389Z,58.86
2022-12-03T03:41:44.416Z,58.47
2022-12-03T03:42:44.292Z,45.62
2022-12-03T03:43:44.432Z,62.29
2022-12-03T03:44:44.290Z,51.00
2022-12-03T03:45:44.310Z,55.30
2022-12-03T03:46:44.398Z,59.99
2022-12-03T03:47:44.210Z,61.51
2022-12-03T03:48:44.214Z,65.30
2022-12-03T03:49:44.334Z,62.22
2022-12-03T03:50:44.200Z,61.95
2022-12-03T03:51:44.829Z,63.56
2022-12-03T03:52:44.249Z,61.81
2022-12-03T03:53:44.295Z,59.93
2022-12-03T03:54:44.162Z,65.40
2022-12-03T03:55:45.121Z,62.16
2022-12-03T03:56:44.141Z,68.37
2022-12-03T03:57:44.162Z,61.97
2022-12-03T03:58:44.729Z,60.00
2022-12-03T03:59:44.246Z,65.69
2022-12-03T04:00:44.145Z,53.36
2022-12-03T04:01:44.118Z,63.37
2022-12-03T04:02:44.078Z,60.79
2022-12-03T04:03:44.208Z,58.41
2022-12-03T04:04:44.017Z,65.49
2022-12-03T04:05:45.033Z,57.57
2022-12-03T04:06:44.062Z,55.64
2022-12-03T04:07:44.066Z,63.71
2022-12-03T04:08:44.003Z,60.41
2022-12-03T04:09:44.002Z,67.24
2022-12-03T04:10:43.993Z,55.65
2022-12-03T04:11:44.111Z,66.17
2022-12-03T04:12:44.008Z,65.64
2022-12-03T04:13:43.976Z,60.93
2022-12-03T04:14:43.998Z,59.99
2022-12-03T04:15:43.967Z,63.58
2022-12-03T04:16:43.976Z,64.38
2022-12-03T04:17:44.030Z,57.88
2022-12-03T04:18:43.954Z,61.97
2022-12-03T04:19:43.905Z,68.20
2022-12-03T04:20:43.855Z,57.94
2022-12-03T04:21:43.849Z,65.42
2022-12-03T04:22:43.843Z,61.95
2022-12-03T04:23:43.862Z,65.32
2022-12-03T04:24:43.866Z,63.26
2022-12-03T04:25:43.830Z,69.14
2022-12-03T04:26:43.906Z,67.44
2022-12-03T04:27:43.767Z,61.06
2022-12-03T04:28:43.799Z,64.76
2022-12-03T04:29:43.766Z,62.72
2022-12-03T04:30:43.826Z,69.46
2022-12-03T04:31:43.771Z,68.06
2022-12-03T04:32:43.740Z,59.44
2022-12-03T04:33:43.834Z,60.79
2022-12-03T04:34:43.728Z,63.53
2022-12-03T04:35:45.919Z,63.93
2022-12-03T04:36:43.686Z,66.31
2022-12-03T04:37:44.255Z,58.22
2022-12-03T04:38:43.695Z,64.47
2022-12-03T04:39:43.647Z,65.26
2022-12-03T04:40:43.656Z,63.65
2022-12-03T04:41:43.656Z,63.54
2022-12-03T04:42:43.627Z,65.09
2022-12-03T04:43:43.627Z,67.58
2022-12-03T04:44:43.626Z,65.92
2022-12-03T04:45:43.668Z,64.59
2022-12-03T04:46:43.578Z,67.95
2022-12-03T04:47:43.566Z,59.35
2022-12-03T04:48:43.586Z,65.45
2022-12-03T04:49:43.587Z,64.69
2022-12-03T04:50:43.520Z,66.01
2022-12-03T04:51:43.541Z,65.00
2022-12-03T04:52:43.512Z,58.49
2022-12-03T04:53:46.304Z,65.31
2022-12-03T04:54:44.489Z,69.14
2022-12-03T04:55:43.508Z,66.44
2022-12-03T04:56:43.456Z,62.86
2022-12-03T04:57:43.490Z,64.07
2022-12-03T04:58:43.488Z,66.74
2022-12-03T04:59:43.464Z,65.11
2022-12-03T05:00:43.428Z,64.40
2022-12-03T05:01:43.528Z,63.09
2022-12-03T05:02:43.468Z,67.98
2022-12-03T05:03:43.419Z,69.03
2022-12-03T05:04:43.375Z,66.41
2022-12-03T05:05:43.401Z,63.36
2022-12-03T05:06:43.361Z,68.30
2022-12-03T05:07:43.453Z,65.60
2022-12-03T05:08:43.337Z,66.49
2022-12-03T05:09:43.336Z,68.42
2022-12-03T05:10:44.168Z,64.89
2022-12-03T05:11:43.313Z,64.57
2022-12-03T05:12:43.299Z,67.70
2022-12-03T05:13:43.423Z,67.83
2022-12-03T05:14:43.272Z,64.30
2022-12-03T05:15:43.256Z,64.31
2022-12-03T05:16:43.309Z,66.68
2022-12-03T05:17:43.245Z,61.13
2022-12-03T05:18:43.248Z,68.15
2022-12-03T05:19:43.223Z,70.06
2022-12-03T05:20:45.800Z,68.19
2022-12-03T05:21:43.221Z,68.28
2022-12-03T05:22:43.197Z,59.69
2022-12-03T05:23:43.749Z,73.93
2022-12-03T05:24:43.196Z,71.72
2022-12-03T05:25:43.180Z,72.77
2022-12-03T05:26:43.205Z,65.66
2022-12-03T05:27:43.146Z,64.58
2022-12-03T05:28:44.129Z,65.95
2022-12-03T05:29:43.123Z,70.66
2022-12-03T05:30:43.270Z,68.20
2022-12-03T05:31:43.118Z,68.34
2022-12-03T05:32:43.074Z,72.36
2022-12-03T05:33:44.558Z,67.02
2022-12-03T05:34:44.066Z,68.74
2022-12-03T05:35:43.060Z,66.94
2022-12-03T05:36:43.046Z,67.07
2022-12-03T05:37:43.031Z,72.29
2022-12-03T05:38:43.057Z,67.93
2022-12-03T05:39:43.250Z,69.79
2022-12-03T05:40:43.003Z,68.81
2022-12-03T05:41:43.077Z,67.32
2022-12-03T05:42:42.989Z,69.51
2022-12-03T05:43:42.983Z,66.24
2022-12-03T05:44:42.968Z,69.75
2022-12-03T05:45:43.002Z,67.50
2022-12-03T05:46:43.017Z,64.38
2022-12-03T05:47:42.929Z,68.15
2022-12-03T05:48:42.918Z,69.11
2022-12-03T05:49:42.906Z,66.67
2022-12-03T05:50:42.902Z,67.37
2022-12-03T05:51:42.878Z,64.48
2022-12-03T05:52:42.890Z,69.06
2022-12-03T05:53:42.875Z,66.35
2022-12-03T05:54:42.848Z,68.22
2022-12-03T05:55:42.842Z,67.17
2022-12-03T05:56:42.858Z,70.66
2022-12-03T05:57:42.835Z,66.38
2022-12-03T05:58:42.823Z,63.08
2022-12-03T05:59:42.799Z,66.55
2022-12-03T06:00:43.184Z,72.25
2022-12-03T06:01:43.726Z,66.31
2022-12-03T06:02:42.901Z,69.30
2022-12-03T06:03:42.883Z,66.71
2022-12-03T06:04:42.750Z,70.42
2022-12-03T06:05:42.743Z,67.25
2022-12-03T06:06:42.761Z,67.19
2022-12-03T06:07:42.764Z,68.21
2022-12-03T06:08:42.723Z,64.28
2022-12-03T06:09:42.707Z,68.27
2022-12-03T06:10:42.691Z,67.83
2022-12-03T06:11:42.668Z,66.03
2022-12-03T06:12:42.660Z,65.76
2022-12-03T06:13:42.665Z,69.45
2022-12-03T06:14:42.657Z,70.15
2022-12-03T06:15:44.135Z,71.30
2022-12-03T06:16:43.669Z,65.89
2022-12-03T06:17:42.603Z,69.42
2022-12-03T06:18:42.600Z,64.13
2022-12-03T06:19:42.596Z,68.96
2022-12-03T06:20:42.632Z,69.19
2022-12-03T06:21:42.592Z,68.11
2022-12-03T06:22:42.559Z,67.02
2022-12-03T06:23:42.537Z,66.83
2022-12-03T06:24:42.529Z,59.90
2022-12-03T06:25:42.533Z,68.59
2022-12-03T06:26:42.556Z,67.03
2022-12-03T06:27:42.523Z,67.03
2022-12-03T06:28:42.516Z,66.95
2022-12-03T06:29:42.496Z,57.51
2022-12-03T06:30:42.492Z,63.90
2022-12-03T06:31:42.513Z,70.57
2022-12-03T06:32:42.438Z,69.96
2022-12-03T06:33:42.449Z,64.23
2022-12-03T06:34:42.425Z,68.76
2022-12-03T06:35:42.406Z,63.11
2022-12-03T06:36:42.400Z,68.57
2022-12-03T06:37:42.403Z,66.69
2022-12-03T06:38:42.369Z,67.16
2022-12-03T06:39:42.413Z,71.88
2022-12-03T06:40:42.342Z,69.32
2022-12-03T06:41:42.364Z,69.70
2022-12-03T06:42:42.329Z,71.44
2022-12-03T06:43:42.340Z,61.03
2022-12-03T06:44:42.369Z,70.56
2022-12-03T06:45:47.495Z,68.70
2022-12-03T06:46:44.384Z,71.19
2022-12-03T06:47:42.291Z,69.69
2022-12-03T06:48:42.275Z,66.64
2022-12-03T06:49:42.272Z,69.39
2022-12-03T06:50:42.273Z,70.82
2022-12-03T06:51:42.243Z,71.06
2022-12-03T06:52:42.226Z,67.48
2022-12-03T06:53:42.218Z,70.50
2022-12-03T06:54:42.221Z,67.34
2022-12-03T06:55:42.201Z,65.12
2022-12-03T06:56:45.331Z,71.56
2022-12-03T06:57:43.177Z,63.58
2022-12-03T06:58:42.165Z,70.19
2022-12-03T06:59:42.154Z,65.21
2022-12-03T07:00:42.178Z,66.40
2022-12-03T07:01:42.222Z,71.30
2022-12-03T07:02:42.151Z,65.34
2022-12-03T07:03:42.159Z,67.84
2022-12-03T07:04:46.263Z,63.70
2022-12-03T07:05:43.091Z,68.46
2022-12-03T07:06:42.094Z,64.59
2022-12-03T07:07:42.140Z,68.22
2022-12-03T07:08:42.082Z,70.99
2022-12-03T07:09:42.603Z,63.98
2022-12-03T07:10:42.047Z,69.20
2022-12-03T07:11:42.025Z,68.31
2022-12-03T07:12:42.038Z,71.17
2022-12-03T07:13:42.025Z,69.21
2022-12-03T07:14:41.995Z,69.08
2022-12-03T07:15:42.065Z,69.76
2022-12-03T07:16:42.087Z,71.05
2022-12-03T07:17:41.958Z,67.45
2022-12-03T07:18:41.979Z,66.37
2022-12-03T07:19:41.931Z,67.22
2022-12-03T07:20:41.994Z,69.84
2022-12-03T07:21:41.916Z,68.68
2022-12-03T07:22:41.951Z,70.89
2022-12-03T07:23:41.923Z,69.55
2022-12-03T07:24:41.888Z,68.97
2022-12-03T07:25:41.997Z,66.77
2022-12-03T07:26:41.905Z,70.50
2022-12-03T07:27:41.988Z,66.91
2022-12-03T07:28:41.853Z,70.95
2022-12-03T07:29:41.856Z,69.80
2022-12-03T07:30:41.839Z,70.38
2022-12-03T07:31:41.848Z,68.69
2022-12-03T07:32:41.848Z,67.82
2022-12-03T07:33:41.784Z,72.52
2022-12-03T07:34:41.852Z,68.78
2022-12-03T07:35:41.760Z,67.21
2022-12-03T07:36:41.774Z,72.98
2022-12-03T07:37:41.753Z,67.70
2022-12-03T07:38:41.743Z,70.48
2022-12-03T07:39:41.742Z,71.07
2022-12-03T07:40:41.775Z,70.31
2022-12-03T07:41:41.704Z,71.04
2022-12-03T07:42:41.712Z,72.30
2022-12-03T07:43:41.711Z,70.72
2022-12-03T07:44:41.655Z,73.26
2022-12-03T07:45:42.748Z,71.19
2022-12-03T07:46:41.779Z,70.65
2022-12-03T07:47:41.866Z,70.92
2022-12-03T07:48:42.180Z,73.61
2022-12-03T07:49:41.660Z,70.64
2022-12-03T07:50:41.606Z,69.73
2022-12-03T07:51:41.613Z,73.59
2022-12-03T07:52:41.617Z,73.70
2022-12-03T07:53:41.573Z,71.95
2022-12-03T07:54:41.569Z,68.72
2022-12-03T07:55:41.561Z,71.61
2022-12-03T07:56:41.572Z,73.41
2022-12-03T07:57:42.269Z,69.97
2022-12-03T07:58:42.174Z,72.81
2022-12-03T07:59:41.526Z,72.85
2022-12-03T08:00:42.581Z,70.71
2022-12-03T08:01:41.507Z,71.53
2022-12-03T08:02:41.557Z,71.64
2022-12-03T08:03:41.453Z,71.95
2022-12-03T08:04:41.453Z,72.01
2022-12-03T08:05:41.478Z,72.99
2022-12-03T08:06:41.433Z,72.91
2022-12-03T08:07:41.493Z,69.58
2022-12-03T08:08:41.446Z,69.49
2022-12-03T08:09:41.401Z,74.42
2022-12-03T08:10:41.413Z,71.26
2022-12-03T08:11:41.408Z,71.41
2022-12-03T08:12:41.364Z,72.79
2022-12-03T08:13:41.338Z,73.48
2022-12-03T08:14:41.327Z,71.87
2022-12-03T08:15:41.363Z,72.12
2022-12-03T08:16:41.510Z,74.21
2022-12-03T08:17:41.303Z,73.67
2022-12-03T08:18:41.311Z,74.45
2022-12-03T08:19:41.274Z,70.23
2022-12-03T08:20:41.278Z,70.79
2022-12-03T08:21:41.282Z,73.55
2022-12-03T08:22:41.275Z,71.58
2022-12-03T08:23:41.267Z,71.83
2022-12-03T08:24:41.247Z,73.79
2022-12-03T08:25:41.208Z,72.99
2022-12-03T08:26:41.218Z,72.92
2022-12-03T08:27:41.324Z,71.88
2022-12-03T08:28:41.207Z,69.74
2022-12-03T08:29:41.192Z,72.97
2022-12-03T08:30:41.267Z,74.00
2022-12-03T08:31:41.193Z,74.05
2022-12-03T08:32:41.152Z,72.62
2022-12-03T08:33:42.693Z,72.63
2022-12-03T08:34:41.282Z,74.06
2022-12-03T08:35:41.111Z,73.81
2022-12-03T08:36:41.099Z,72.46
2022-12-03T08:37:41.090Z,75.77
2022-12-03T08:38:41.099Z,74.12
2022-12-03T08:39:41.053Z,74.26
2022-12-03T08:40:41.109Z,73.51
2022-12-03T08:41:41.099Z,73.81
2022-12-03T08:42:41.075Z,74.78
2022-12-03T08:43:41.029Z,71.91
2022-12-03T08:44:41.028Z,73.03
2022-12-03T08:45:41.150Z,73.46
2022-12-03T08:46:40.981Z,71.50
2022-12-03T08:47:40.970Z,72.03
2022-12-03T08:48:46.972Z,71.03
2022-12-03T08:49:42.958Z,74.67
2022-12-03T08:50:40.943Z,73.67
2022-12-03T08:51:40.939Z,72.09
2022-12-03T08:52:40.935Z,72.29
2022-12-03T08:53:40.934Z,74.22
2022-12-03T08:54:40.939Z,73.82
2022-12-03T08:55:40.948Z,71.51
2022-12-03T08:56:40.874Z,71.26
2022-12-03T08:57:41.116Z,70.44
2022-12-03T08:58:40.895Z,69.15
2022-12-03T08:59:45.317Z,73.54
2022-12-03T09:00:41.865Z,74.63
2022-12-03T09:01:40.887Z,69.85
2022-12-03T09:02:40.823Z,71.08
2022-12-03T09:03:40.867Z,75.34
2022-12-03T09:04:40.921Z,72.05
2022-12-03T09:05:40.763Z,73.26
2022-12-03T09:06:40.776Z,72.77
2022-12-03T09:07:40.830Z,72.07
2022-12-03T09:08:40.758Z,73.36
2022-12-03T09:09:40.864Z,73.24
2022-12-03T09:10:40.739Z,73.83
2022-12-03T09:11:40.739Z,72.72
2022-12-03T09:12:40.702Z,71.94
2022-12-03T09:13:40.698Z,73.85
2022-12-03T09:14:40.687Z,75.18
2022-12-03T09:15:41.009Z,70.81
2022-12-03T09:16:40.771Z,71.45
2022-12-03T09:17:43.188Z,74.77
2022-12-03T09:18:40.783Z,73.27
2022-12-03T09:19:45.681Z,74.20
2022-12-03T09:20:42.699Z,73.83
2022-12-03T09:21:40.602Z,73.52
2022-12-03T09:22:40.591Z,71.66
2022-12-03T09:23:40.751Z,72.07
2022-12-03T09:24:40.612Z,73.98
2022-12-03T09:25:40.586Z,74.84
2022-12-03T09:26:40.612Z,73.24
2022-12-03T09:27:40.546Z,73.10
2022-12-03T09:28:42.352Z,74.87
2022-12-03T09:29:42.264Z,75.23
2022-12-03T09:30:40.520Z,73.14
2022-12-03T09:31:40.596Z,73.84
2022-12-03T09:32:40.508Z,72.79
2022-12-03T09:33:40.601Z,74.01
2022-12-03T09:34:41.552Z,71.52
2022-12-03T09:35:40.457Z,73.95
2022-12-03T09:36:41.011Z,76.34
2022-12-03T09:37:40.433Z,73.27
2022-12-03T09:38:45.987Z,73.03
2022-12-03T09:39:42.410Z,73.02
2022-12-03T09:40:40.424Z,73.60
2022-12-03T09:41:40.405Z,72.65
2022-12-03T09:42:40.401Z,73.21
2022-12-03T09:44:03.405Z,73.11
2022-12-03T09:44:42.344Z,72.82
2022-12-03T09:45:40.400Z,73.86
2022-12-03T09:46:40.401Z,74.37
2022-12-03T09:47:40.333Z,72.19
2022-12-03T09:48:40.309Z,74.03
2022-12-03T09:49:40.564Z,74.27
2022-12-03T09:50:40.292Z,70.90
2022-12-03T09:51:40.305Z,74.05
2022-12-03T09:52:40.268Z,73.67
2022-12-03T09:53:41.492Z,74.16
2022-12-03T09:54:46.858Z,69.49
2022-12-03T09:55:41.295Z,73.95
2022-12-03T09:56:40.238Z,72.50
2022-12-03T09:57:40.265Z,73.40
2022-12-03T09:58:41.170Z,74.44
2022-12-03T09:59:41.158Z,75.08
2022-12-03T10:00:40.318Z,72.72
2022-12-03T10:01:41.795Z,73.10
2022-12-03T10:02:40.205Z,72.07
2022-12-03T10:03:40.161Z,72.78
2022-12-03T10:04:40.216Z,74.26
2022-12-03T10:05:45.096Z,74.36
2022-12-03T10:06:45.786Z,71.99
2022-12-03T10:07:40.178Z,72.15
2022-12-03T10:08:40.674Z,72.91
2022-12-03T10:09:40.143Z,73.50
2022-12-03T10:10:40.069Z,72.60
2022-12-03T10:11:40.086Z,71.67
2022-12-03T10:12:40.676Z,73.16
2022-12-03T10:13:40.065Z,72.80
2022-12-03T10:14:40.089Z,74.37
2022-12-03T10:15:40.058Z,74.14
2022-12-03T10:16:40.247Z,72.69
2022-12-03T10:17:40.001Z,70.57
2022-12-03T10:18:41.821Z,73.11
2022-12-03T10:19:41.003Z,72.95
2022-12-03T10:20:39.955Z,74.28
2022-12-03T10:21:41.642Z,75.82
2022-12-03T10:22:39.962Z,72.35
2022-12-03T10:23:39.936Z,74.86
2022-12-03T10:24:39.954Z,72.44
2022-12-03T10:25:40.043Z,74.01
2022-12-03T10:26:39.982Z,72.14
2022-12-03T10:27:40.506Z,73.16
2022-12-03T10:28:40.646Z,73.06
2022-12-03T10:29:39.874Z,73.25
2022-12-03T10:30:39.948Z,73.79
2022-12-03T10:31:39.938Z,77.23
2022-12-03T10:32:39.866Z,73.67
2022-12-03T10:33:39.823Z,73.71
2022-12-03T10:34:39.815Z,71.25
2022-12-03T10:35:39.815Z,73.42
2022-12-03T10:36:39.804Z,75.45
2022-12-03T10:37:39.779Z,74.79
2022-12-03T10:38:39.779Z,74.36
2022-12-03T10:39:39.743Z,74.02
2022-12-03T10:40:39.737Z,75.38
2022-12-03T10:41:39.747Z,73.42
2022-12-03T10:42:39.748Z,73.43
2022-12-03T10:43:39.720Z,73.18
2022-12-03T10:44:39.690Z,75.15
2022-12-03T10:45:39.673Z,73.69
2022-12-03T10:46:39.875Z,72.82
2022-12-03T10:47:39.826Z,72.94
2022-12-03T10:48:39.653Z,70.47
2022-12-03T10:49:39.992Z,73.50
2022-12-03T10:50:39.636Z,71.28
2022-12-03T10:51:39.646Z,73.65
2022-12-03T10:52:39.692Z,75.03
2022-12-03T10:53:39.615Z,73.40
2022-12-03T10:54:39.609Z,72.11
2022-12-03T10:55:39.576Z,75.32
2022-12-03T10:56:39.585Z,72.80
2022-12-03T10:57:45.005Z,73.47
2022-12-03T10:58:41.548Z,73.20
2022-12-03T10:59:39.569Z,73.71
2022-12-03T11:00:39.529Z,71.24
2022-12-03T11:01:39.625Z,74.12
2022-12-03T11:02:39.536Z,71.53
2022-12-03T11:03:40.279Z,73.79
2022-12-03T11:04:39.574Z,72.16
2022-12-03T11:05:40.176Z,73.43
2022-12-03T11:06:40.714Z,74.07
2022-12-03T11:07:39.507Z,73.03
2022-12-03T11:08:39.448Z,73.23
2022-12-03T11:09:39.424Z,73.35
2022-12-03T11:10:39.453Z,72.44
2022-12-03T11:11:39.479Z,73.94
2022-12-03T11:12:39.417Z,73.23
2022-12-03T11:13:39.396Z,71.86
2022-12-03T11:14:39.373Z,73.12
2022-12-03T11:15:39.384Z,73.91
2022-12-03T11:16:39.351Z,72.85
2022-12-03T11:17:39.365Z,72.72
2022-12-03T11:18:39.361Z,72.86
2022-12-03T11:19:39.317Z,72.55
2022-12-03T11:20:39.298Z,74.95
2022-12-03T11:21:39.310Z,73.08
2022-12-03T11:22:39.305Z,73.13
2022-12-03T11:23:39.280Z,74.45
2022-12-03T11:24:39.293Z,73.01
2022-12-03T11:25:39.345Z,74.11
2022-12-03T11:26:39.245Z,71.82
2022-12-03T11:27:39.257Z,74.59
2022-12-03T11:28:39.293Z,73.92
2022-12-03T11:29:39.241Z,73.37
2022-12-03T11:30:40.302Z,73.11
2022-12-03T11:31:39.281Z,73.47
2022-12-03T11:32:39.181Z,72.51
2022-12-03T11:33:39.202Z,74.24
2022-12-03T11:34:39.182Z,74.10
2022-12-03T11:35:39.198Z,72.74
2022-12-03T11:37:00.721Z,73.71
2022-12-03T11:37:41.179Z,72.87
2022-12-03T11:38:39.180Z,73.03
2022-12-03T11:39:39.122Z,73.78
2022-12-03T11:40:39.810Z,75.82
2022-12-03T11:41:40.084Z,74.83
2022-12-03T11:42:39.059Z,72.25
2022-12-03T11:43:39.116Z,72.92
2022-12-03T11:44:39.043Z,72.74
2022-12-03T11:45:39.050Z,71.80
2022-12-03T11:46:39.259Z,73.44
2022-12-03T11:47:39.016Z,72.32
2022-12-03T11:48:39.047Z,75.28
2022-12-03T11:49:39.051Z,72.32
2022-12-03T11:50:40.408Z,71.91
2022-12-03T11:51:39.991Z,73.14
2022-12-03T11:52:39.071Z,73.71
2022-12-03T11:53:38.957Z,73.23
2022-12-03T11:54:39.919Z,72.26
2022-12-03T11:55:38.984Z,71.49
2022-12-03T11:56:38.930Z,73.49
2022-12-03T11:57:39.019Z,74.37
2022-12-03T11:58:39.288Z,73.89
2022-12-03T11:59:38.907Z,73.16
2022-12-03T12:00:38.872Z,74.22
2022-12-03T12:01:39.364Z,73.95
2022-12-03T12:02:38.945Z,74.24
2022-12-03T12:03:38.975Z,74.14
2022-12-03T12:04:39.881Z,74.38
2022-12-03T12:05:38.850Z,72.06
2022-12-03T12:06:38.810Z,72.72
2022-12-03T12:07:38.830Z,74.66
2022-12-03T12:08:38.766Z,73.45
2022-12-03T12:09:38.783Z,73.99
2022-12-03T12:10:38.752Z,72.17
2022-12-03T12:11:38.767Z,75.47
2022-12-03T12:12:38.758Z,74.22
2022-12-03T12:13:38.717Z,74.58
2022-12-03T12:14:38.954Z,74.42
2022-12-03T12:15:38.695Z,74.73
2022-12-03T12:16:38.772Z,73.43
2022-12-03T12:17:38.705Z,74.29
2022-12-03T12:18:38.676Z,73.82
2022-12-03T12:19:38.665Z,72.25
2022-12-03T12:20:38.640Z,73.17
2022-12-03T12:21:38.711Z,73.50
2022-12-03T12:22:38.645Z,74.37
2022-12-03T12:23:38.644Z,73.10
2022-12-03T12:24:38.642Z,72.25
2022-12-03T12:25:38.582Z,74.77
2022-12-03T12:26:38.581Z,74.36
2022-12-03T12:27:38.576Z,75.76
2022-12-03T12:28:38.631Z,72.00
2022-12-03T12:29:38.564Z,74.25
2022-12-03T12:30:38.553Z,75.93
2022-12-03T12:31:38.595Z,75.34
2022-12-03T12:32:38.526Z,75.31
2022-12-03T12:33:38.494Z,74.26
2022-12-03T12:34:38.926Z,73.48
2022-12-03T12:35:39.018Z,73.80
2022-12-03T12:36:38.469Z,72.27
2022-12-03T12:37:38.469Z,73.89
2022-12-03T12:38:39.107Z,74.18
2022-12-03T12:39:38.461Z,69.74
2022-12-03T12:40:38.458Z,71.29
2022-12-03T12:41:38.498Z,74.57
2022-12-03T12:42:38.418Z,72.92
2022-12-03T12:43:38.462Z,74.64
2022-12-03T12:44:38.469Z,72.80
2022-12-03T12:45:38.445Z,73.15
2022-12-03T12:46:47.779Z,74.85
2022-12-03T12:47:41.175Z,74.46
2022-12-03T12:48:40.286Z,74.71
2022-12-03T12:49:38.327Z,71.98
2022-12-03T12:50:38.382Z,75.30
2022-12-03T12:51:40.267Z,71.54
2022-12-03T12:52:38.283Z,71.59